sensor_id;sensor_type;location;lat;lon;timestamp;pressure;altitude;pressure_sealevel;temperature;humidity
60170;BME280;46042;49.444;6.862;2022-11-15T00:00:53;98248.78;;;8.91;100.00
60170;BME280;46042;49.444;6.862;2022-11-15T00:03:24;98248.69;;;8.92;100.00
60170;BME280;46042;49.444;6.862;2022-11-15T00:05:51;98254.41;;;8.99;100.00
60170;BME280;46042;49.444;6.862;2022-11-15T00:08:18;98255.22;;;9.00;100.00
60170;BME280;46042;49.444;6.862;2022-11-15T00:10:56;98246.59;;;8.98;100.00
60170;BME280;46042;49.444;6.862;2022-11-15T00:13:23;98250.63;;;9.03;100.00
60170;BME280;46042;49.444;6.862;2022-11-15T00:15:50;98242.00;;;9.01;100.00
60170;BME280;46042;49.444;6.862;2022-11-15T00:18:17;98249.53;;;9.06;100.00
60170;BME280;46042;49.444;6.862;2022-11-15T00:20:44;98250.09;;;9.11;100.00
60170;BME280;46042;49.444;6.862;2022-11-15T00:23:11;98237.78;;;9.11;100.00
60170;BME280;46042;49.444;6.862;2022-11-15T00:25:38;98247.56;;;9.09;100.00
60170;BME280;46042;49.444;6.862;2022-11-15T00:28:04;98240.72;;;9.07;100.00
60170;BME280;46042;49.444;6.862;2022-11-15T00:30:31;98235.38;;;9.21;100.00
60170;BME280;46042;49.444;6.862;2022-11-15T00:33:03;98237.59;;;9.15;100.00
60170;BME280;46042;49.444;6.862;2022-11-15T00:35:33;98239.38;;;9.14;100.00
60170;BME280;46042;49.444;6.862;2022-11-15T00:38:01;98229.53;;;9.31;100.00
60170;BME280;46042;49.444;6.862;2022-11-15T00:40:28;98237.28;;;9.19;100.00
60170;BME280;46042;49.444;6.862;2022-11-15T00:42:55;98232.31;;;9.15;100.00
60170;BME280;46042;49.444;6.862;2022-11-15T00:45:22;98224.66;;;9.11;100.00
60170;BME280;46042;49.444;6.862;2022-11-15T00:47:48;98231.72;;;9.11;100.00
60170;BME280;46042;49.444;6.862;2022-11-15T00:50:15;98232.09;;;9.05;100.00
60170;BME280;46042;49.444;6.862;2022-11-15T00:52:42;98229.28;;;9.08;100.00
60170;BME280;46042;49.444;6.862;2022-11-15T00:55:14;98230.84;;;9.10;100.00
60170;BME280;46042;49.444;6.862;2022-11-15T00:57:41;98221.28;;;9.09;100.00
60170;BME280;46042;49.444;6.862;2022-11-15T01:00:08;98224.66;;;9.11;100.00
60170;BME280;46042;49.444;6.862;2022-11-15T01:02:35;98226.25;;;9.14;100.00
60170;BME280;46042;49.444;6.862;2022-11-15T01:05:02;98224.25;;;9.18;100.00
60170;BME280;46042;49.444;6.862;2022-11-15T01:07:29;98221.81;;;9.15;100.00
60170;BME280;46042;49.444;6.862;2022-11-15T01:09:55;98218.88;;;9.19;100.00
60170;BME280;46042;49.444;6.862;2022-11-15T01:12:22;98226.13;;;9.16;100.00
60170;BME280;46042;49.444;6.862;2022-11-15T01:14:49;98225.31;;;9.15;100.00
60170;BME280;46042;49.444;6.862;2022-11-15T01:17:16;98229.41;;;9.19;100.00
60170;BME280;46042;49.444;6.862;2022-11-15T01:19:42;98236.47;;;9.19;100.00
60170;BME280;46042;49.444;6.862;2022-11-15T01:22:09;98238.66;;;9.25;100.00
60170;BME280;46042;49.444;6.862;2022-11-15T01:24:36;98240.66;;;9.21;100.00
60170;BME280;46042;49.444;6.862;2022-11-15T01:27:02;98235.50;;;9.20;100.00
60170;BME280;46042;49.444;6.862;2022-11-15T01:29:29;98236.47;;;9.32;100.00
60170;BME280;46042;49.444;6.862;2022-11-15T01:31:55;98229.19;;;9.22;100.00
60170;BME280;46042;49.444;6.862;2022-11-15T01:34:22;98224.78;;;9.23;100.00
60170;BME280;46042;49.444;6.862;2022-11-15T01:36:49;98225.63;;;9.23;100.00
60170;BME280;46042;49.444;6.862;2022-11-15T01:39:15;98228.25;;;9.23;100.00
60170;BME280;46042;49.444;6.862;2022-11-15T01:41:43;98224.88;;;9.21;100.00
60170;BME280;46042;49.444;6.862;2022-11-15T01:44:39;98220.88;;;9.16;100.00
60170;BME280;46042;49.444;6.862;2022-11-15T01:47:37;98225.38;;;9.14;100.00
60170;BME280;46042;49.444;6.862;2022-11-15T01:50:09;98217.84;;;9.09;100.00
60170;BME280;46042;49.444;6.862;2022-11-15T01:52:38;98220.84;;;9.03;100.00
60170;BME280;46042;49.444;6.862;2022-11-15T01:55:21;98205.81;;;8.92;100.00
60170;BME280;46042;49.444;6.862;2022-11-15T01:57:51;98213.91;;;8.89;100.00
60170;BME280;46042;49.444;6.862;2022-11-15T02:00:19;98208.34;;;8.93;100.00
60170;BME280;46042;49.444;6.862;2022-11-15T02:02:46;98208.97;;;8.97;100.00
60170;BME280;46042;49.444;6.862;2022-11-15T02:05:13;98207.41;;;8.94;100.00
60170;BME280;46042;49.444;6.862;2022-11-15T02:07:40;98200.34;;;8.95;100.00
60170;BME280;46042;49.444;6.862;2022-11-15T02:10:18;98202.88;;;8.96;100.00
60170;BME280;46042;49.444;6.862;2022-11-15T02:12:46;98195.41;;;8.90;100.00
60170;BME280;46042;49.444;6.862;2022-11-15T02:15:13;98194.13;;;8.83;100.00
60170;BME280;46042;49.444;6.862;2022-11-15T02:23:45;98194.88;;;8.85;100.00
60170;BME280;46042;49.444;6.862;2022-11-15T02:32:11;98182.44;;;8.74;100.00
60170;BME280;46042;49.444;6.862;2022-11-15T02:37:22;98187.41;;;8.79;100.00
60170;BME280;46042;49.444;6.862;2022-11-15T02:40:07;98179.72;;;8.76;100.00
60170;BME280;46042;49.444;6.862;2022-11-15T02:42:50;98173.31;;;8.80;100.00
60170;BME280;46042;49.444;6.862;2022-11-15T02:46:08;98176.25;;;8.75;100.00
60170;BME280;46042;49.444;6.862;2022-11-15T02:48:38;98167.53;;;8.75;100.00
60170;BME280;46042;49.444;6.862;2022-11-15T02:51:05;98169.84;;;8.79;100.00
60170;BME280;46042;49.444;6.862;2022-11-15T02:53:32;98173.84;;;8.85;100.00
60170;BME280;46042;49.444;6.862;2022-11-15T02:55:59;98170.41;;;8.85;100.00
60170;BME280;46042;49.444;6.862;2022-11-15T03:01:06;98167.66;;;8.86;100.00
60170;BME280;46042;49.444;6.862;2022-11-15T03:06:56;98165.44;;;8.80;100.00
60170;BME280;46042;49.444;6.862;2022-11-15T03:09:34;98158.38;;;8.80;100.00
60170;BME280;46042;49.444;6.862;2022-11-15T03:12:16;98171.66;;;8.79;100.00
60170;BME280;46042;49.444;6.862;2022-11-15T03:15:11;98164.72;;;8.78;100.00
60170;BME280;46042;49.444;6.862;2022-11-15T03:18:02;98162.91;;;8.78;100.00
60170;BME280;46042;49.444;6.862;2022-11-15T03:20:31;98168.50;;;8.74;100.00
60170;BME280;46042;49.444;6.862;2022-11-15T03:23:10;98160.63;;;8.87;100.00
60170;BME280;46042;49.444;6.862;2022-11-15T03:25:41;98154.44;;;9.01;100.00
60170;BME280;46042;49.444;6.862;2022-11-15T03:28:15;98154.13;;;9.05;100.00
60170;BME280;46042;49.444;6.862;2022-11-15T03:30:43;98150.22;;;8.98;100.00
60170;BME280;46042;49.444;6.862;2022-11-15T03:33:12;98152.53;;;8.90;100.00
60170;BME280;46042;49.444;6.862;2022-11-15T03:35:40;98145.59;;;8.89;100.00
60170;BME280;46042;49.444;6.862;2022-11-15T03:38:36;98149.91;;;8.90;100.00
60170;BME280;46042;49.444;6.862;2022-11-15T03:41:05;98142.47;;;8.84;100.00
60170;BME280;46042;49.444;6.862;2022-11-15T03:46:46;98139.94;;;8.95;100.00
60170;BME280;46042;49.444;6.862;2022-11-15T03:49:35;98132.78;;;8.97;100.00
60170;BME280;46042;49.444;6.862;2022-11-15T03:52:03;98133.84;;;8.94;100.00
60170;BME280;46042;49.444;6.862;2022-11-15T03:54:30;98134.78;;;8.93;100.00
60170;BME280;46042;49.444;6.862;2022-11-15T03:56:57;98136.47;;;8.94;100.00
60170;BME280;46042;49.444;6.862;2022-11-15T03:59:24;98135.41;;;8.97;100.00
60170;BME280;46042;49.444;6.862;2022-11-15T04:01:50;98133.34;;;9.02;100.00
60170;BME280;46042;49.444;6.862;2022-11-15T04:04:17;98139.41;;;8.90;100.00
60170;BME280;46042;49.444;6.862;2022-11-15T04:06:43;98132.56;;;8.87;100.00
60170;BME280;46042;49.444;6.862;2022-11-15T04:09:10;98135.19;;;8.87;100.00
60170;BME280;46042;49.444;6.862;2022-11-15T04:11:37;98126.69;;;8.84;100.00
60170;BME280;46042;49.444;6.862;2022-11-15T04:14:03;98129.84;;;8.89;100.00
60170;BME280;46042;49.444;6.862;2022-11-15T04:16:30;98128.47;;;8.83;100.00
60170;BME280;46042;49.444;6.862;2022-11-15T04:18:56;98128.81;;;8.91;100.00
60170;BME280;46042;49.444;6.862;2022-11-15T04:21:42;98121.88;;;8.90;100.00
60170;BME280;46042;49.444;6.862;2022-11-15T04:24:27;98116.06;;;8.98;100.00
60170;BME280;46042;49.444;6.862;2022-11-15T04:26:53;98124.06;;;8.96;100.00
60170;BME280;46042;49.444;6.862;2022-11-15T04:29:20;98128.16;;;9.01;100.00
60170;BME280;46042;49.444;6.862;2022-11-15T04:32:03;98129.03;;;9.01;100.00
60170;BME280;46042;49.444;6.862;2022-11-15T04:34:31;98116.84;;;9.00;100.00
60170;BME280;46042;49.444;6.862;2022-11-15T04:36:58;98121.03;;;9.03;100.00
60170;BME280;46042;49.444;6.862;2022-11-15T04:39:40;98119.13;;;9.05;100.00
60170;BME280;46042;49.444;6.862;2022-11-15T04:42:07;98115.16;;;8.99;100.00
60170;BME280;46042;49.444;6.862;2022-11-15T04:44:34;98117.56;;;9.02;100.00
60170;BME280;46042;49.444;6.862;2022-11-15T04:47:01;98121.09;;;8.88;100.00
60170;BME280;46042;49.444;6.862;2022-11-15T04:49:28;98121.44;;;8.84;100.00
60170;BME280;46042;49.444;6.862;2022-11-15T04:51:55;98118.91;;;8.82;100.00
60170;BME280;46042;49.444;6.862;2022-11-15T04:54:21;98116.38;;;8.80;100.00
60170;BME280;46042;49.444;6.862;2022-11-15T04:56:48;98113.56;;;8.84;100.00
60170;BME280;46042;49.444;6.862;2022-11-15T04:59:14;98114.28;;;8.86;100.00
60170;BME280;46042;49.444;6.862;2022-11-15T05:01:41;98112.50;;;8.86;100.00
60170;BME280;46042;49.444;6.862;2022-11-15T05:04:10;98114.38;;;8.84;100.00
60170;BME280;46042;49.444;6.862;2022-11-15T05:06:48;98122.25;;;8.84;100.00
60170;BME280;46042;49.444;6.862;2022-11-15T05:09:17;98119.84;;;8.81;100.00
60170;BME280;46042;49.444;6.862;2022-11-15T05:11:44;98119.75;;;8.82;100.00
60170;BME280;46042;49.444;6.862;2022-11-15T05:14:11;98118.06;;;8.81;100.00
60170;BME280;46042;49.444;6.862;2022-11-15T05:16:38;98120.59;;;8.83;100.00
60170;BME280;46042;49.444;6.862;2022-11-15T05:19:05;98120.06;;;8.78;100.00
60170;BME280;46042;49.444;6.862;2022-11-15T05:21:32;98123.50;;;8.78;100.00
60170;BME280;46042;49.444;6.862;2022-11-15T05:24:00;98117.53;;;8.76;100.00
60170;BME280;46042;49.444;6.862;2022-11-15T05:26:27;98111.31;;;8.77;100.00
60170;BME280;46042;49.444;6.862;2022-11-15T05:28:55;98115.75;;;8.77;100.00
60170;BME280;46042;49.444;6.862;2022-11-15T05:31:24;98119.34;;;8.76;100.00
60170;BME280;46042;49.444;6.862;2022-11-15T05:33:51;98111.75;;;8.71;100.00
60170;BME280;46042;49.444;6.862;2022-11-15T05:36:36;98116.34;;;8.67;100.00
60170;BME280;46042;49.444;6.862;2022-11-15T05:39:07;98110.28;;;8.67;100.00
60170;BME280;46042;49.444;6.862;2022-11-15T05:41:50;98114.16;;;8.61;100.00
60170;BME280;46042;49.444;6.862;2022-11-15T05:44:21;98102.06;;;8.59;100.00
60170;BME280;46042;49.444;6.862;2022-11-15T05:46:50;98097.09;;;8.54;100.00
60170;BME280;46042;49.444;6.862;2022-11-15T05:49:22;98097.88;;;8.56;100.00
60170;BME280;46042;49.444;6.862;2022-11-15T05:51:51;98099.84;;;8.52;100.00
60170;BME280;46042;49.444;6.862;2022-11-15T05:54:19;98098.91;;;8.53;100.00
60170;BME280;46042;49.444;6.862;2022-11-15T05:56:48;98097.97;;;8.54;100.00
60170;BME280;46042;49.444;6.862;2022-11-15T05:59:16;98103.13;;;8.56;100.00
60170;BME280;46042;49.444;6.862;2022-11-15T06:01:44;98111.09;;;8.54;100.00
60170;BME280;46042;49.444;6.862;2022-11-15T06:04:10;98111.09;;;8.54;100.00
60170;BME280;46042;49.444;6.862;2022-11-15T06:06:37;98112.84;;;8.54;100.00
60170;BME280;46042;49.444;6.862;2022-11-15T06:09:03;98122.41;;;8.55;100.00
60170;BME280;46042;49.444;6.862;2022-11-15T06:11:30;98114.66;;;8.53;100.00
60170;BME280;46042;49.444;6.862;2022-11-15T06:13:57;98119.91;;;8.53;100.00
60170;BME280;46042;49.444;6.862;2022-11-15T06:16:23;98112.97;;;8.52;100.00
60170;BME280;46042;49.444;6.862;2022-11-15T06:18:50;98106.88;;;8.52;100.00
60170;BME280;46042;49.444;6.862;2022-11-15T06:21:16;98109.88;;;8.46;100.00
60170;BME280;46042;49.444;6.862;2022-11-15T06:23:43;98110.09;;;8.43;100.00
60170;BME280;46042;49.444;6.862;2022-11-15T06:26:09;98105.38;;;8.48;100.00
60170;BME280;46042;49.444;6.862;2022-11-15T06:28:36;98105.56;;;8.45;100.00
60170;BME280;46042;49.444;6.862;2022-11-15T06:31:04;98110.72;;;8.46;100.00
60170;BME280;46042;49.444;6.862;2022-11-15T06:33:30;98105.28;;;8.49;100.00
60170;BME280;46042;49.444;6.862;2022-11-15T06:36:09;98113.22;;;8.35;100.00
60170;BME280;46042;49.444;6.862;2022-11-15T06:38:45;98106.50;;;8.31;100.00
60170;BME280;46042;49.444;6.862;2022-11-15T06:41:13;98119.50;;;8.32;100.00
60170;BME280;46042;49.444;6.862;2022-11-15T06:43:40;98122.03;;;8.34;100.00
60170;BME280;46042;49.444;6.862;2022-11-15T06:46:07;98111.53;;;8.34;100.00
60170;BME280;46042;49.444;6.862;2022-11-15T06:48:35;98116.66;;;8.35;100.00
60170;BME280;46042;49.444;6.862;2022-11-15T06:51:03;98114.03;;;8.35;100.00
60170;BME280;46042;49.444;6.862;2022-11-15T06:53:31;98111.81;;;8.29;100.00
60170;BME280;46042;49.444;6.862;2022-11-15T06:56:03;98120.63;;;8.28;100.00
60170;BME280;46042;49.444;6.862;2022-11-15T06:58:30;98131.03;;;8.30;100.00
60170;BME280;46042;49.444;6.862;2022-11-15T07:01:02;98132.91;;;8.28;100.00
60170;BME280;46042;49.444;6.862;2022-11-15T07:03:29;98134.59;;;8.29;100.00
60170;BME280;46042;49.444;6.862;2022-11-15T07:05:57;98137.13;;;8.30;100.00
60170;BME280;46042;49.444;6.862;2022-11-15T07:08:32;98131.97;;;8.29;100.00
60170;BME280;46042;49.444;6.862;2022-11-15T07:11:00;98134.28;;;8.33;100.00
60170;BME280;46042;49.444;6.862;2022-11-15T07:13:29;98142.63;;;8.40;100.00
60170;BME280;46042;49.444;6.862;2022-11-15T07:16:05;98142.63;;;8.40;100.00
60170;BME280;46042;49.444;6.862;2022-11-15T07:18:35;98145.03;;;8.43;100.00
60170;BME280;46042;49.444;6.862;2022-11-15T07:21:03;98147.56;;;8.45;100.00
60170;BME280;46042;49.444;6.862;2022-11-15T07:23:30;98147.44;;;8.46;100.00
60170;BME280;46042;49.444;6.862;2022-11-15T07:25:58;98146.38;;;8.50;100.00
60170;BME280;46042;49.444;6.862;2022-11-15T07:28:26;98135.66;;;8.53;100.00
60170;BME280;46042;49.444;6.862;2022-11-15T07:30:53;98130.50;;;8.52;100.00
60170;BME280;46042;49.444;6.862;2022-11-15T07:33:20;98122.53;;;8.53;100.00
60170;BME280;46042;49.444;6.862;2022-11-15T07:35:47;98132.91;;;8.55;100.00
60170;BME280;46042;49.444;6.862;2022-11-15T07:38:17;98128.09;;;8.62;100.00
60170;BME280;46042;49.444;6.862;2022-11-15T07:40:46;98129.19;;;8.72;100.00
60170;BME280;46042;49.444;6.862;2022-11-15T07:43:13;98132.03;;;8.69;100.00
60170;BME280;46042;49.444;6.862;2022-11-15T07:45:44;98133.50;;;8.73;100.00
60170;BME280;46042;49.444;6.862;2022-11-15T07:48:11;98136.66;;;8.78;100.00
60170;BME280;46042;49.444;6.862;2022-11-15T07:50:41;98126.13;;;8.78;100.00
60170;BME280;46042;49.444;6.862;2022-11-15T07:53:09;98131.41;;;8.78;100.00
60170;BME280;46042;49.444;6.862;2022-11-15T07:55:37;98132.25;;;8.79;100.00
60170;BME280;46042;49.444;6.862;2022-11-15T07:58:10;98128.69;;;8.80;100.00
60170;BME280;46042;49.444;6.862;2022-11-15T08:00:38;98126.28;;;8.90;100.00
60170;BME280;46042;49.444;6.862;2022-11-15T08:03:05;98129.84;;;8.89;100.00
60170;BME280;46042;49.444;6.862;2022-11-15T08:05:32;98127.00;;;8.92;100.00
60170;BME280;46042;49.444;6.862;2022-11-15T08:07:59;98117.44;;;8.91;100.00
60170;BME280;46042;49.444;6.862;2022-11-15T08:10:27;98123.34;;;8.94;100.00
60170;BME280;46042;49.444;6.862;2022-11-15T08:13:12;98123.03;;;8.99;100.00
60170;BME280;46042;49.444;6.862;2022-11-15T08:15:39;98120.28;;;9.01;100.00
60170;BME280;46042;49.444;6.862;2022-11-15T08:18:10;98118.19;;;9.06;100.00
60170;BME280;46042;49.444;6.862;2022-11-15T08:20:38;98112.09;;;8.92;100.00
60170;BME280;46042;49.444;6.862;2022-11-15T08:23:06;98117.34;;;8.92;100.00
60170;BME280;46042;49.444;6.862;2022-11-15T08:25:34;98108.53;;;8.93;100.00
60170;BME280;46042;49.444;6.862;2022-11-15T08:28:03;98112.41;;;9.01;100.00
60170;BME280;46042;49.444;6.862;2022-11-15T08:30:35;98104.09;;;9.07;100.00
60170;BME280;46042;49.444;6.862;2022-11-15T08:33:03;98097.50;;;9.14;100.00
60170;BME280;46042;49.444;6.862;2022-11-15T08:35:30;98096.75;;;9.12;100.00
60170;BME280;46042;49.444;6.862;2022-11-15T08:37:56;98092.09;;;9.16;100.00
60170;BME280;46042;49.444;6.862;2022-11-15T08:40:23;98096.84;;;9.23;100.00
60170;BME280;46042;49.444;6.862;2022-11-15T08:42:50;98093.50;;;9.34;100.00
60170;BME280;46042;49.444;6.862;2022-11-15T08:45:17;98094.50;;;9.45;100.00
60170;BME280;46042;49.444;6.862;2022-11-15T08:47:44;98095.38;;;9.45;100.00
60170;BME280;46042;49.444;6.862;2022-11-15T08:50:19;98097.66;;;9.50;100.00
60170;BME280;46042;49.444;6.862;2022-11-15T08:52:46;98096.25;;;9.70;100.00
60170;BME280;46042;49.444;6.862;2022-11-15T08:55:14;98097.38;;;9.79;100.00
60170;BME280;46042;49.444;6.862;2022-11-15T08:57:43;98100.63;;;9.82;100.00
60170;BME280;46042;49.444;6.862;2022-11-15T09:00:10;98099.19;;;9.78;100.00
60170;BME280;46042;49.444;6.862;2022-11-15T09:02:39;98095.19;;;9.73;100.00
60170;BME280;46042;49.444;6.862;2022-11-15T09:05:06;98093.28;;;9.75;100.00
60170;BME280;46042;49.444;6.862;2022-11-15T09:07:32;98096.66;;;9.77;100.00
60170;BME280;46042;49.444;6.862;2022-11-15T09:09:59;98096.38;;;9.68;100.00
60170;BME280;46042;49.444;6.862;2022-11-15T09:12:26;98101.41;;;9.72;100.00
60170;BME280;46042;49.444;6.862;2022-11-15T09:14:53;98100.22;;;9.76;100.00
60170;BME280;46042;49.444;6.862;2022-11-15T09:17:19;98091.56;;;9.87;100.00
60170;BME280;46042;49.444;6.862;2022-11-15T09:19:50;98077.91;;;9.81;100.00
60170;BME280;46042;49.444;6.862;2022-11-15T09:22:17;98080.81;;;9.90;100.00
60170;BME280;46042;49.444;6.862;2022-11-15T09:24:44;98077.19;;;10.04;100.00
60170;BME280;46042;49.444;6.862;2022-11-15T09:27:10;98076.41;;;10.15;100.00
60170;BME280;46042;49.444;6.862;2022-11-15T09:29:38;98074.56;;;10.28;100.00
60170;BME280;46042;49.444;6.862;2022-11-15T09:32:04;98066.69;;;10.39;100.00
60170;BME280;46042;49.444;6.862;2022-11-15T09:34:31;98061.13;;;10.44;100.00
60170;BME280;46042;49.444;6.862;2022-11-15T09:36:58;98053.38;;;10.54;100.00
60170;BME280;46042;49.444;6.862;2022-11-15T09:39:24;98048.19;;;10.52;100.00
60170;BME280;46042;49.444;6.862;2022-11-15T09:42:07;98041.06;;;10.66;100.00
60170;BME280;46042;49.444;6.862;2022-11-15T09:50:27;98042.53;;;10.93;100.00
60170;BME280;46042;49.444;6.862;2022-11-15T09:52:55;98037.16;;;11.29;100.00
60170;BME280;46042;49.444;6.862;2022-11-15T09:55:32;98039.00;;;11.72;100.00
60170;BME280;46042;49.444;6.862;2022-11-15T09:58:10;98038.06;;;12.17;100.00
60170;BME280;46042;49.444;6.862;2022-11-15T10:00:45;98028.94;;;12.64;100.00
60170;BME280;46042;49.444;6.862;2022-11-15T10:03:18;98017.09;;;12.58;100.00
60170;BME280;46042;49.444;6.862;2022-11-15T10:05:50;98022.56;;;12.45;100.00
60170;BME280;46042;49.444;6.862;2022-11-15T10:08:36;98020.69;;;12.36;100.00
60170;BME280;46042;49.444;6.862;2022-11-15T10:11:19;98023.97;;;12.28;100.00
60170;BME280;46042;49.444;6.862;2022-11-15T10:14:19;98020.66;;;12.15;100.00
60170;BME280;46042;49.444;6.862;2022-11-15T10:19:51;98015.09;;;11.85;100.00
60170;BME280;46042;49.444;6.862;2022-11-15T10:22:38;98016.03;;;12.07;100.00
60170;BME280;46042;49.444;6.862;2022-11-15T10:27:35;98010.06;;;13.31;100.00
60170;BME280;46042;49.444;6.862;2022-11-15T10:30:04;98001.78;;;13.45;100.00
60170;BME280;46042;49.444;6.862;2022-11-15T10:32:37;97992.56;;;13.08;100.00
60170;BME280;46042;49.444;6.862;2022-11-15T10:35:30;97976.97;;;13.05;100.00
60170;BME280;46042;49.444;6.862;2022-11-15T10:38:08;97982.19;;;13.17;100.00
60170;BME280;46042;49.444;6.862;2022-11-15T10:40:37;97970.09;;;13.34;100.00
60170;BME280;46042;49.444;6.862;2022-11-15T10:43:16;97966.75;;;13.32;98.43
60170;BME280;46042;49.444;6.862;2022-11-15T10:45:44;97972.66;;;13.45;100.00
60170;BME280;46042;49.444;6.862;2022-11-15T10:50:43;97961.63;;;13.30;99.34
60170;BME280;46042;49.444;6.862;2022-11-15T10:53:17;97958.28;;;13.28;96.26
60170;BME280;46042;49.444;6.862;2022-11-15T10:55:48;97950.47;;;13.36;94.70
60170;BME280;46042;49.444;6.862;2022-11-15T10:58:32;97934.66;;;13.66;98.12
60170;BME280;46042;49.444;6.862;2022-11-15T11:01:29;97931.06;;;13.97;92.17
60170;BME280;46042;49.444;6.862;2022-11-15T11:04:07;97926.75;;;13.96;91.92
60170;BME280;46042;49.444;6.862;2022-11-15T11:06:55;97927.00;;;13.83;92.25
60170;BME280;46042;49.444;6.862;2022-11-15T11:09:37;97925.88;;;14.15;91.75
60170;BME280;46042;49.444;6.862;2022-11-15T11:12:06;97922.53;;;14.13;93.85
60170;BME280;46042;49.444;6.862;2022-11-15T11:14:38;97921.03;;;13.90;91.63
60170;BME280;46042;49.444;6.862;2022-11-15T11:19:58;97914.63;;;13.63;92.11
60170;BME280;46042;49.444;6.862;2022-11-15T11:25:53;97906.53;;;13.45;97.66
60170;BME280;46042;49.444;6.862;2022-11-15T11:28:37;97904.69;;;13.36;95.90
60170;BME280;46042;49.444;6.862;2022-11-15T11:37:14;97893.22;;;13.06;91.67
60170;BME280;46042;49.444;6.862;2022-11-15T11:48:12;97869.16;;;13.29;93.11
60170;BME280;46042;49.444;6.862;2022-11-15T11:50:42;97859.28;;;13.31;94.70
60170;BME280;46042;49.444;6.862;2022-11-15T11:53:12;97859.16;;;13.32;92.85
60170;BME280;46042;49.444;6.862;2022-11-15T11:55:53;97854.97;;;13.30;93.82
60170;BME280;46042;49.444;6.862;2022-11-15T12:04:01;97832.69;;;13.03;94.24
60170;BME280;46042;49.444;6.862;2022-11-15T12:06:50;97827.94;;;13.16;94.82
60170;BME280;46042;49.444;6.862;2022-11-15T12:17:02;97814.19;;;13.22;95.57
60170;BME280;46042;49.444;6.862;2022-11-15T12:19:32;97812.66;;;13.20;94.64
60170;BME280;46042;49.444;6.862;2022-11-15T12:22:06;97817.38;;;13.06;94.71
60170;BME280;46042;49.444;6.862;2022-11-15T12:24:46;97814.41;;;12.90;93.61
60170;BME280;46042;49.444;6.862;2022-11-15T12:29:56;97789.66;;;13.01;95.90
60170;BME280;46042;49.444;6.862;2022-11-15T12:32:28;97784.25;;;13.02;92.77
60170;BME280;46042;49.444;6.862;2022-11-15T12:34:57;97786.63;;;13.15;94.42
60170;BME280;46042;49.444;6.862;2022-11-15T12:42:44;97767.84;;;13.18;90.31
60170;BME280;46042;49.444;6.862;2022-11-15T12:45:37;97761.72;;;13.18;91.27
60170;BME280;46042;49.444;6.862;2022-11-15T12:58:54;97741.53;;;12.97;91.33
60170;BME280;46042;49.444;6.862;2022-11-15T13:06:56;97740.41;;;13.00;92.55
60170;BME280;46042;49.444;6.862;2022-11-15T13:11:57;97727.88;;;12.92;92.44
60170;BME280;46042;49.444;6.862;2022-11-15T13:19:59;97714.41;;;12.95;91.91
60170;BME280;46042;49.444;6.862;2022-11-15T13:22:27;97714.53;;;12.93;91.96
60170;BME280;46042;49.444;6.862;2022-11-15T13:27:57;97703.53;;;13.18;95.18
60170;BME280;46042;49.444;6.862;2022-11-15T13:30:31;97700.91;;;13.08;89.23
60170;BME280;46042;49.444;6.862;2022-11-15T13:33:08;97689.34;;;13.09;91.73
60170;BME280;46042;49.444;6.862;2022-11-15T13:35:40;97688.09;;;13.03;91.75
60170;BME280;46042;49.444;6.862;2022-11-15T13:38:19;97681.72;;;12.96;90.48
60170;BME280;46042;49.444;6.862;2022-11-15T13:40:51;97669.03;;;12.90;88.94
60170;BME280;46042;49.444;6.862;2022-11-15T13:46:22;97656.81;;;12.89;89.10
60170;BME280;46042;49.444;6.862;2022-11-15T13:56:43;97649.56;;;12.81;92.02
60170;BME280;46042;49.444;6.862;2022-11-15T13:59:17;97638.72;;;12.74;92.06
60170;BME280;46042;49.444;6.862;2022-11-15T14:01:46;97644.00;;;12.74;93.56
60170;BME280;46042;49.444;6.862;2022-11-15T14:04:14;97637.22;;;12.72;91.53
60170;BME280;46042;49.444;6.862;2022-11-15T14:06:50;97623.84;;;12.63;91.76
60170;BME280;46042;49.444;6.862;2022-11-15T14:12:00;97625.09;;;12.49;93.89
60170;BME280;46042;49.444;6.862;2022-11-15T14:14:28;97625.09;;;12.49;94.06
60170;BME280;46042;49.444;6.862;2022-11-15T14:16:57;97620.53;;;12.51;92.33
60170;BME280;46042;49.444;6.862;2022-11-15T14:22:30;97607.19;;;12.53;93.34
60170;BME280;46042;49.444;6.862;2022-11-15T14:27:43;97599.78;;;12.57;94.42
60170;BME280;46042;49.444;6.862;2022-11-15T14:30:15;97589.50;;;12.54;94.21
60170;BME280;46042;49.444;6.862;2022-11-15T14:32:48;97590.91;;;12.58;94.64
60170;BME280;46042;49.444;6.862;2022-11-15T14:35:22;97594.50;;;12.57;93.89
60170;BME280;46042;49.444;6.862;2022-11-15T14:37:49;97584.22;;;12.54;93.05
60170;BME280;46042;49.444;6.862;2022-11-15T14:40:18;97584.50;;;12.50;94.69
60170;BME280;46042;49.444;6.862;2022-11-15T14:42:47;97582.28;;;12.46;94.67
60170;BME280;46042;49.444;6.862;2022-11-15T14:45:19;97572.41;;;12.38;94.48
60170;BME280;46042;49.444;6.862;2022-11-15T14:47:46;97576.72;;;12.39;96.53
60170;BME280;46042;49.444;6.862;2022-11-15T14:50:15;97580.78;;;12.33;97.59
60170;BME280;46042;49.444;6.862;2022-11-15T14:52:42;97573.25;;;12.29;96.20
60170;BME280;46042;49.444;6.862;2022-11-15T14:55:20;97572.00;;;12.23;95.37
60170;BME280;46042;49.444;6.862;2022-11-15T14:57:47;97571.31;;;12.21;95.65
60170;BME280;46042;49.444;6.862;2022-11-15T15:00:15;97563.81;;;12.16;97.27
60170;BME280;46042;49.444;6.862;2022-11-15T15:02:44;97558.53;;;12.16;97.85
60170;BME280;46042;49.444;6.862;2022-11-15T15:05:17;97558.22;;;12.09;97.44
60170;BME280;46042;49.444;6.862;2022-11-15T15:07:44;97555.19;;;12.04;97.84
60170;BME280;46042;49.444;6.862;2022-11-15T15:10:12;97549.63;;;12.07;97.83
60170;BME280;46042;49.444;6.862;2022-11-15T15:12:59;97559.28;;;11.97;98.09
60170;BME280;46042;49.444;6.862;2022-11-15T15:15:31;97550.84;;;11.93;98.65
60170;BME280;46042;49.444;6.862;2022-11-15T15:17:58;97547.34;;;11.83;98.43
60170;BME280;46042;49.444;6.862;2022-11-15T15:20:25;97549.41;;;11.79;99.92
60170;BME280;46042;49.444;6.862;2022-11-15T15:22:52;97539.56;;;11.81;99.38
60170;BME280;46042;49.444;6.862;2022-11-15T15:25:27;97535.25;;;11.80;99.31